createdAt,value
2024-04-14T00:03:08.547Z,3.30
2024-04-14T00:08:10.125Z,2.75
2024-04-14T00:13:11.659Z,3.90
2024-04-14T00:18:13.269Z,3.80
2024-04-14T00:23:15.101Z,3.22
2024-04-14T00:28:16.649Z,3.58
2024-04-14T00:33:18.253Z,3.17
2024-04-14T00:38:19.861Z,3.20
2024-04-14T00:43:21.491Z,2.67
2024-04-14T00:48:23.774Z,2.55
2024-04-14T00:53:25.730Z,1.92
2024-04-14T00:58:27.691Z,2.00
2024-04-14T01:03:29.517Z,1.60
2024-04-14T01:08:31.235Z,1.63
2024-04-14T01:13:32.780Z,1.60
2024-04-14T01:18:34.685Z,1.25
2024-04-14T01:23:36.393Z,0.98
2024-04-14T01:28:37.899Z,0.80
2024-04-14T01:33:39.628Z,1.20
2024-04-14T01:38:41.149Z,1.20
2024-04-14T01:43:42.670Z,1.50
2024-04-14T01:48:44.227Z,1.48
2024-04-14T01:53:45.851Z,0.98
2024-04-14T01:58:47.364Z,1.33
2024-04-14T02:03:49.043Z,1.80
2024-04-14T02:08:52.016Z,1.00
2024-04-14T02:13:53.591Z,0.82
2024-04-14T02:18:55.769Z,1.40
2024-04-14T02:23:57.328Z,1.27
2024-04-14T02:28:58.884Z,1.15
2024-04-14T02:34:00.525Z,1.23
2024-04-14T02:39:02.115Z,1.10
2024-04-14T02:44:03.913Z,1.23
2024-04-14T02:49:06.457Z,1.33
2024-04-14T02:54:07.996Z,1.17
2024-04-14T02:59:09.534Z,1.15
2024-04-14T03:04:11.197Z,1.45
2024-04-14T03:09:12.819Z,1.65
2024-04-14T03:14:14.389Z,1.38
2024-04-14T03:19:15.932Z,1.30
2024-04-14T03:24:17.507Z,1.42
2024-04-14T03:29:19.199Z,1.38
2024-04-14T03:34:20.755Z,1.40
2024-04-14T03:39:22.337Z,1.70
2024-04-14T03:44:23.872Z,1.50
2024-04-14T03:49:25.411Z,1.95
2024-04-14T03:54:26.985Z,1.42
2024-04-14T03:59:28.533Z,1.40
2024-04-14T04:04:31.075Z,1.88
2024-04-14T04:09:32.618Z,1.80
2024-04-14T04:14:34.154Z,1.63
2024-04-14T04:19:35.984Z,1.67
2024-04-14T04:24:37.655Z,1.48
2024-04-14T04:29:39.164Z,2.13
2024-04-14T04:34:40.692Z,2.13
2024-04-14T04:39:42.299Z,1.85
2024-04-14T04:44:43.884Z,1.85
2024-04-14T04:49:45.404Z,2.13
2024-04-14T04:54:47.122Z,2.17
2024-04-14T04:59:48.647Z,2.40
2024-04-14T05:04:56.015Z,1.88
2024-04-14T05:09:57.580Z,1.90
2024-04-14T05:14:59.231Z,2.25
2024-04-14T05:20:00.730Z,2.63
2024-04-14T05:25:02.262Z,2.13
2024-04-14T05:30:04.518Z,1.92
2024-04-14T05:35:06.060Z,3.33
2024-04-14T05:40:07.987Z,2.55
2024-04-14T05:45:10.246Z,2.10
2024-04-14T05:50:11.910Z,2.53
2024-04-14T05:55:13.548Z,2.55
2024-04-14T06:00:15.135Z,2.72
2024-04-14T06:05:16.703Z,3.05
2024-04-14T06:10:18.180Z,3.28
2024-04-14T06:15:19.775Z,2.70
2024-04-14T06:20:21.326Z,3.42
2024-04-14T06:25:22.904Z,3.50
2024-04-14T06:30:24.602Z,3.28
2024-04-14T06:35:26.274Z,3.60
2024-04-14T06:40:30.370Z,3.45
2024-04-14T06:45:31.986Z,3.25
2024-04-14T06:50:33.570Z,3.70
2024-04-14T06:55:36.424Z,3.55
2024-04-14T07:00:39.589Z,3.70
2024-04-14T07:05:43.631Z,3.90
2024-04-14T07:10:45.205Z,4.28
2024-04-14T07:15:46.808Z,3.90
2024-04-14T07:20:48.531Z,4.13
2024-04-14T07:25:50.103Z,4.05
2024-04-14T07:30:51.713Z,3.80
2024-04-14T07:35:53.332Z,4.25
2024-04-14T07:40:54.827Z,4.32
2024-04-14T07:45:56.482Z,3.88
2024-04-14T07:50:58.010Z,4.18
2024-04-14T07:55:59.719Z,4.05
2024-04-14T08:01:01.298Z,4.75
2024-04-14T08:06:05.244Z,4.40
2024-04-14T08:11:06.797Z,3.72
2024-04-14T08:16:08.664Z,4.00
2024-04-14T08:21:10.481Z,3.97
2024-04-14T08:26:12.197Z,3.83
2024-04-14T08:31:13.894Z,4.70
2024-04-14T08:36:15.554Z,4.28
2024-04-14T08:41:17.911Z,3.88
2024-04-14T08:46:21.350Z,3.47
2024-04-14T08:51:23.021Z,4.40
2024-04-14T08:56:24.986Z,3.55
2024-04-14T09:01:27.135Z,3.97
2024-04-14T09:06:32.453Z,3.75
2024-04-14T09:11:34.166Z,4.10
2024-04-14T09:16:36.801Z,3.45
2024-04-14T09:21:38.798Z,3.00
2024-04-14T09:26:40.427Z,3.13
2024-04-14T09:31:42.053Z,2.10
2024-04-14T09:36:46.899Z,1.60
2024-04-14T09:41:49.483Z,2.05
2024-04-14T09:46:52.279Z,1.90
2024-04-14T09:51:55.783Z,1.45
2024-04-14T09:56:57.540Z,2.17
2024-04-14T10:01:59.800Z,2.17
2024-04-14T10:07:02.402Z,2.15
2024-04-14T10:12:04.842Z,1.80
2024-04-14T10:17:07.509Z,1.98
2024-04-14T10:22:12.251Z,2.20
2024-04-14T10:27:13.902Z,1.63
2024-04-14T10:32:21.668Z,1.75
2024-04-14T10:37:24.198Z,1.83
2024-04-14T10:42:25.820Z,1.55
2024-04-14T10:47:27.442Z,1.67
2024-04-14T10:52:29.375Z,1.10
2024-04-14T10:57:31.088Z,1.83
2024-04-14T11:02:32.690Z,2.65
2024-04-14T11:07:34.988Z,1.52
2024-04-14T11:12:36.994Z,2.00
2024-04-14T11:17:38.835Z,2.13
2024-04-14T11:22:40.438Z,1.85
2024-04-14T11:27:42.146Z,2.05
2024-04-14T11:32:43.961Z,2.10
2024-04-14T11:37:45.610Z,2.10
2024-04-14T11:42:47.340Z,2.05
2024-04-14T11:47:48.996Z,2.42
2024-04-14T11:52:50.517Z,2.35
2024-04-14T11:57:52.068Z,2.20
2024-04-14T12:02:53.875Z,2.60
2024-04-14T12:07:55.764Z,2.60
2024-04-14T12:12:57.300Z,2.17
2024-04-14T12:17:58.940Z,2.40
2024-04-14T12:23:01.775Z,2.35
2024-04-14T12:28:03.472Z,2.58
2024-04-14T12:33:05.423Z,2.78
2024-04-14T12:38:07.007Z,3.00
2024-04-14T12:43:08.625Z,2.80
2024-04-14T12:48:17.962Z,3.40
2024-04-14T12:53:20.459Z,2.67
2024-04-14T12:58:22.147Z,2.63
2024-04-14T13:03:24.487Z,3.00
2024-04-14T13:08:26.027Z,3.65
2024-04-14T13:13:27.538Z,2.45
2024-04-14T13:18:29.032Z,3.88
2024-04-14T13:23:31.678Z,3.30
2024-04-14T13:28:33.198Z,3.13
2024-04-14T13:33:34.870Z,2.90
2024-04-14T13:38:36.576Z,2.83
2024-04-14T13:43:38.080Z,3.17
2024-04-14T13:48:39.644Z,2.58
2024-04-14T13:53:42.458Z,2.47
2024-04-14T13:58:44.038Z,2.20
2024-04-14T14:03:45.595Z,2.28
2024-04-14T14:08:47.159Z,2.25
2024-04-14T14:13:48.687Z,2.78
2024-04-14T14:18:50.342Z,2.20
2024-04-14T14:23:51.963Z,2.42
2024-04-14T14:28:53.527Z,2.00
2024-04-14T14:33:55.269Z,2.30
2024-04-14T14:38:58.391Z,2.50
2024-04-14T14:44:00.564Z,2.50
2024-04-14T14:49:03.318Z,2.05
2024-04-14T14:54:06.261Z,2.30
2024-04-14T14:59:08.696Z,2.20
2024-04-14T15:04:10.394Z,2.58
2024-04-14T15:09:12.066Z,2.17
2024-04-14T15:14:13.677Z,2.85
2024-04-14T15:19:15.242Z,2.42
2024-04-14T15:24:16.858Z,2.10
2024-04-14T15:29:18.518Z,2.13
2024-04-14T15:34:20.176Z,2.55
2024-04-14T15:39:21.996Z,2.45
2024-04-14T15:44:27.465Z,2.70
2024-04-14T15:49:29.504Z,2.55
2024-04-14T15:54:32.146Z,2.40
2024-04-14T15:59:33.730Z,1.95
2024-04-14T16:04:35.680Z,2.17
2024-04-14T16:09:37.406Z,2.63
2024-04-14T16:14:39.061Z,2.33
2024-04-14T16:19:40.875Z,3.05
2024-04-14T16:24:42.600Z,1.88
2024-04-14T16:29:44.320Z,2.45
2024-04-14T16:34:47.895Z,2.40
2024-04-14T16:39:49.565Z,2.28
2024-04-14T16:44:51.295Z,1.95
2024-04-14T16:49:53.068Z,2.00
2024-04-14T16:54:54.916Z,1.95
2024-04-14T16:59:56.643Z,2.47
2024-04-14T17:04:58.324Z,2.53
2024-04-14T17:09:59.987Z,2.03
2024-04-14T17:15:01.696Z,1.90
2024-04-14T17:20:03.869Z,2.08
2024-04-14T17:25:06.064Z,2.33
2024-04-14T17:30:08.586Z,2.08
2024-04-14T17:35:10.256Z,2.03
2024-04-14T17:40:11.911Z,1.38
2024-04-14T17:45:38.947Z,1.52
2024-04-14T17:50:38.608Z,1.77
2024-04-14T17:55:52.317Z,1.40
2024-04-14T18:00:57.305Z,1.23
2024-04-14T18:06:00.426Z,2.00
2024-04-14T18:11:02.261Z,1.70
2024-04-14T18:16:05.139Z,1.80
2024-04-14T18:21:07.086Z,1.42
2024-04-14T18:26:08.753Z,2.10
2024-04-14T18:31:10.449Z,1.48
2024-04-14T18:36:18.479Z,1.60
2024-04-14T18:41:21.165Z,1.73
2024-04-14T18:46:22.688Z,1.63
2024-04-14T18:51:24.274Z,1.90
2024-04-14T18:56:25.907Z,1.90
2024-04-14T19:01:27.802Z,1.88
2024-04-14T19:06:29.368Z,1.65
2024-04-14T19:11:30.934Z,2.10
2024-04-14T19:16:32.682Z,1.73
2024-04-14T19:21:34.252Z,1.90
2024-04-14T19:26:35.831Z,1.45
2024-04-14T19:31:37.419Z,1.80
2024-04-14T19:36:38.983Z,1.50
2024-04-14T19:41:40.737Z,1.83
2024-04-14T19:46:42.890Z,1.58
2024-04-14T19:51:44.655Z,1.73
2024-04-14T19:56:46.813Z,1.63
2024-04-14T20:01:51.255Z,1.73
2024-04-14T20:06:52.871Z,1.88
2024-04-14T20:11:54.445Z,1.60
2024-04-14T20:16:55.956Z,1.90
2024-04-14T20:21:57.725Z,2.67
2024-04-14T20:26:59.497Z,2.97
2024-04-14T20:32:01.170Z,2.35
2024-04-14T20:37:02.803Z,2.25
2024-04-14T20:42:04.622Z,2.10
2024-04-14T20:47:06.142Z,3.05
2024-04-14T20:52:07.827Z,2.67
2024-04-14T20:57:09.362Z,2.30
2024-04-14T21:02:10.967Z,2.60
2024-04-14T21:07:12.730Z,2.05
2024-04-14T21:12:14.278Z,1.90
2024-04-14T21:17:15.925Z,2.40
2024-04-14T21:22:17.571Z,2.10
2024-04-14T21:27:19.165Z,1.80
2024-04-14T21:32:20.900Z,2.10
2024-04-14T21:37:22.397Z,2.60
2024-04-14T21:42:24.122Z,2.17
2024-04-14T21:47:25.761Z,2.28
2024-04-14T21:52:27.324Z,2.20
2024-04-14T21:57:29.251Z,2.47
2024-04-14T22:02:30.865Z,1.95
2024-04-14T22:07:32.375Z,2.25
2024-04-14T22:12:34.200Z,2.20
2024-04-14T22:17:35.954Z,2.45
2024-04-14T22:22:37.485Z,2.70
2024-04-14T22:27:39.037Z,2.35
2024-04-14T22:32:40.622Z,2.58
2024-04-14T22:37:42.181Z,2.47
2024-04-14T22:42:43.715Z,3.28
2024-04-14T22:47:45.238Z,2.83
2024-04-14T22:52:46.792Z,3.08
2024-04-14T22:57:48.359Z,2.75
2024-04-14T23:02:49.970Z,3.38
2024-04-14T23:07:51.585Z,2.70
2024-04-14T23:12:53.107Z,2.90
2024-04-14T23:17:54.773Z,3.15
2024-04-14T23:22:56.304Z,3.17
2024-04-14T23:27:57.948Z,2.97
2024-04-14T23:33:00.662Z,3.08
2024-04-14T23:38:02.226Z,3.15
2024-04-14T23:43:04.040Z,2.83
2024-04-14T23:48:06.157Z,3.38
2024-04-14T23:53:07.946Z,2.75
2024-04-14T23:58:09.747Z,2.50
